Terminal Aerodrome Forecast
Issued by NWS Sterling, VA

Current Version | Previous Version | Graphics & Text | Print | Product List | Glossary On
Versions: 1 2 3 4 5 6 7 8 9 10 11 12 13 14 15 16 17 18 19 20 21 22 23 24 25 26
000
FTUS41 KLWX 240831 AAA
TAFIAD
TAF AMD
KIAD 240831Z 2409/2512 17005KT P6SM FEW120 FEW250
     FM241500 19009KT P6SM SCT070 OVC090
     FM241900 20013G21KT P6SM BKN070
     FM250000 20008KT P6SM SCT060 BKN250
     FM250300 21007KT P6SM SCT060 BKN250 WS020/23035KT
     FM250400 21007KT P6SM SCT025 BKN250=

USA.gov is the U.S. government's official web portal to all federal, state and local government web resources and services.